Time;durP1;ratioP1;P1;durP2;ratioP2;P2;SDS_P1;SDS_P2;PMS_P1;PMS_P2;Temp;Humidity;BMP_temperature;BMP_pressure;BME280_temperature;BME280_humidity;BME280_pressure;Samples;Min_cycle;Max_cycle;Signal;HPM_P1;HPM_P2
2020/12/07 00:01:24;;;;;;;12.40;7.40;;;9.40;99.90;;;;;;5086085;28;20389;-82
2020/12/07 00:03:50;;;;;;;11.05;8.20;;;9.40;99.90;;;;;;5071585;28;20398;-82
2020/12/07 00:06:20;;;;;;;15.65;11.02;;;9.40;99.90;;;;;;5071998;28;20397;-81
2020/12/07 00:08:46;;;;;;;16.33;12.55;;;9.40;99.90;;;;;;5053780;28;20401;-78
2020/12/07 00:11:15;;;;;;;11.82;7.30;;;9.30;99.90;;;;;;5071690;28;20435;-79
2020/12/07 00:13:41;;;;;;;11.13;7.73;;;9.30;99.90;;;;;;5071954;28;20378;-79
2020/12/07 00:16:11;;;;;;;10.17;7.07;;;9.30;99.90;;;;;;5071917;28;20350;-78
2020/12/07 00:18:37;;;;;;;9.52;6.45;;;9.30;99.90;;;;;;5053738;28;20751;-83
2020/12/07 00:21:08;;;;;;;9.63;6.50;;;9.30;99.90;;;;;;5087505;28;21070;-81
2020/12/07 00:23:34;;;;;;;15.85;6.38;;;9.20;99.90;;;;;;5071535;28;20370;-84
2020/12/07 00:26:00;;;;;;;8.10;6.43;;;9.20;99.90;;;;;;5073241;28;20419;-81
2020/12/07 00:28:26;;;;;;;8.93;6.53;;;9.20;99.90;;;;;;5075865;28;20739;-83
2020/12/07 00:30:52;;;;;;;8.18;6.40;;;9.20;99.90;;;;;;5075465;28;20743;-83
2020/12/07 00:33:17;;;;;;;10.27;6.65;;;9.20;99.90;;;;;;5057417;28;20382;-83
2020/12/07 00:35:43;;;;;;;10.10;6.30;;;9.20;99.90;;;;;;5057460;28;20393;-85
2020/12/07 00:38:09;;;;;;;8.80;5.93;;;9.20;99.90;;;;;;5075373;28;20366;-83
2020/12/07 00:40:35;;;;;;;8.48;6.07;;;9.20;99.90;;;;;;5075253;28;20370;-84
2020/12/07 00:43:01;;;;;;;9.00;6.30;;;9.30;99.90;;;;;;5075020;28;20362;-83
2020/12/07 00:45:27;;;;;;;9.02;6.35;;;9.30;99.90;;;;;;5074606;28;20453;-83
2020/12/07 00:47:53;;;;;;;8.13;5.90;;;9.30;99.90;;;;;;5081452;28;20374;-84
2020/12/07 00:50:19;;;;;;;8.93;5.95;;;9.20;99.90;;;;;;5074758;28;20951;-82
2020/12/07 00:52:45;;;;;;;7.93;5.82;;;9.20;99.90;;;;;;5056687;28;20725;-83
2020/12/07 00:55:11;;;;;;;9.35;5.80;;;9.20;99.90;;;;;;5074608;28;20694;-82
2020/12/07 00:57:36;;;;;;;17.95;6.65;;;9.20;99.90;;;;;;5056851;28;20370;-81
2020/12/07 01:00:06;;;;;;;8.20;5.72;;;9.20;99.90;;;;;;5056982;28;20428;-82
2020/12/07 01:02:33;;;;;;;7.90;6.05;;;9.20;99.90;;;;;;5074919;28;20411;-82
2020/12/07 01:04:59;;;;;;;8.50;5.93;;;9.10;99.90;;;;;;5074898;28;20362;-82
2020/12/07 01:07:24;;;;;;;9.38;5.80;;;9.10;99.90;;;;;;5056879;28;20474;-82
2020/12/07 01:09:50;;;;;;;10.47;6.33;;;9.10;99.90;;;;;;5074598;28;20389;-83
2020/12/07 01:12:16;;;;;;;7.32;5.50;;;9.10;99.90;;;;;;5056669;28;20880;-83
2020/12/07 01:14:43;;;;;;;9.13;6.05;;;9.10;99.90;;;;;;5056955;28;20454;-82
2020/12/07 01:17:08;;;;;;;8.07;5.40;;;9.10;99.90;;;;;;5056782;28;20390;-82
2020/12/07 01:19:34;;;;;;;8.10;5.88;;;9.10;99.90;;;;;;5056627;28;20445;-82
2020/12/07 01:22:00;;;;;;;8.85;5.95;;;9.10;99.90;;;;;;5074620;28;20374;-82
2020/12/07 01:24:26;;;;;;;9.70;6.67;;;9.20;99.90;;;;;;5056540;28;20499;-82
2020/12/07 01:26:52;;;;;;;8.87;6.10;;;9.10;99.90;;;;;;5074667;28;20384;-83
2020/12/07 01:29:18;;;;;;;8.43;5.88;;;9.10;99.90;;;;;;5056509;28;20457;-83
2020/12/07 01:31:43;;;;;;;8.38;6.03;;;9.20;99.90;;;;;;5074551;28;20386;-82
2020/12/07 01:34:09;;;;;;;7.70;5.90;;;9.10;99.90;;;;;;5074250;28;20384;-82
2020/12/07 01:36:35;;;;;;;8.00;5.95;;;9.20;99.90;;;;;;5056261;28;20872;-82
2020/12/07 01:39:01;;;;;;;9.05;6.07;;;9.10;99.90;;;;;;5073676;28;20381;-82
2020/12/07 01:41:27;;;;;;;8.05;5.70;;;9.10;99.90;;;;;;5056280;28;20368;-82
2020/12/07 01:43:53;;;;;;;9.77;6.22;;;9.10;99.90;;;;;;5056044;28;20375;-82
2020/12/07 01:46:23;;;;;;;11.05;6.47;;;9.10;99.90;;;;;;5074139;28;20385;-82
2020/12/07 01:48:58;;;;;;;10.20;6.30;;;9.10;99.90;;;;;;5074347;28;20362;-82
2020/12/07 01:51:24;;;;;;;10.25;5.78;;;9.10;99.90;;;;;;5073991;28;20374;-81
2020/12/07 01:53:52;;;;;;;11.25;6.97;;;9.10;99.90;;;;;;5073935;28;20362;-81
2020/12/07 01:56:37;;;;;;;9.25;6.40;;;9.10;99.90;;;;;;5055861;28;20446;-81
2020/12/07 01:59:04;;;;;;;11.18;7.05;;;9.10;99.90;;;;;;5055905;28;20374;-81
2020/12/07 02:01:30;;;;;;;8.38;5.90;;;9.10;99.90;;;;;;5073823;28;20362;-81
2020/12/07 02:03:56;;;;;;;8.93;5.97;;;9.10;99.90;;;;;;5055812;28;20370;-81
2020/12/07 02:06:22;;;;;;;8.10;5.53;;;9.10;99.90;;;;;;5073599;28;20362;-81
2020/12/07 02:08:49;;;;;;;8.25;5.97;;;9.00;99.90;;;;;;5073682;28;20415;-81
2020/12/07 02:11:16;;;;;;;9.10;6.00;;;9.10;99.90;;;;;;5055432;28;20397;-81
2020/12/07 02:13:42;;;;;;;8.75;5.85;;;9.10;99.90;;;;;;5055497;28;20477;-81
2020/12/07 02:16:08;;;;;;;10.65;6.53;;;9.10;99.90;;;;;;5073550;28;20362;-81
2020/12/07 02:18:34;;;;;;;8.32;5.65;;;9.00;99.90;;;;;;5073414;28;20480;-81
2020/12/07 02:21:00;;;;;;;10.00;6.30;;;9.00;99.90;;;;;;5073594;28;20365;-81
2020/12/07 02:23:25;;;;;;;7.60;5.43;;;9.00;99.90;;;;;;5073369;28;20362;-82
2020/12/07 02:25:51;;;;;;;8.40;5.10;;;9.00;99.90;;;;;;5055325;28;20457;-82
2020/12/07 02:28:17;;;;;;;9.10;6.47;;;9.00;99.90;;;;;;5055310;28;20397;-82
2020/12/07 02:30:43;;;;;;;9.05;6.25;;;9.00;99.90;;;;;;5073440;28;20391;-82
2020/12/07 02:33:09;;;;;;;9.02;6.18;;;9.00;99.90;;;;;;5073016;28;20393;-82
2020/12/07 02:35:35;;;;;;;9.63;6.55;;;9.00;99.90;;;;;;5055191;28;20370;-82
2020/12/07 02:38:00;;;;;;;9.18;6.63;;;8.90;99.90;;;;;;5055155;28;20455;-83
2020/12/07 02:40:26;;;;;;;8.57;6.43;;;9.00;99.90;;;;;;5055122;28;20436;-82
2020/12/07 02:42:52;;;;;;;9.45;6.30;;;8.90;99.90;;;;;;5073182;28;20380;-82
2020/12/07 02:45:18;;;;;;;9.05;6.18;;;8.90;99.90;;;;;;5073360;28;20861;-82
2020/12/07 02:47:44;;;;;;;10.13;6.93;;;9.00;99.90;;;;;;5055018;28;20461;-82
2020/12/07 02:50:12;;;;;;;9.02;6.03;;;9.00;99.90;;;;;;5054174;28;20428;-84
2020/12/07 02:52:38;;;;;;;10.37;6.10;;;9.00;99.90;;;;;;5054985;28;20398;-83
2020/12/07 02:55:15;;;;;;;9.32;6.10;;;9.00;99.90;;;;;;5072805;28;20362;-83
2020/12/07 02:57:40;;;;;;;8.70;5.80;;;9.00;99.90;;;;;;5072737;28;20752;-82
2020/12/07 03:00:08;;;;;;;9.32;6.30;;;9.00;99.90;;;;;;5054749;28;20370;-82
2020/12/07 03:02:35;;;;;;;9.57;6.70;;;8.90;99.90;;;;;;5072785;28;20416;-83
2020/12/07 03:05:02;;;;;;;8.77;6.25;;;9.00;99.90;;;;;;5072671;28;20370;-83
2020/12/07 03:07:28;;;;;;;9.77;6.85;;;9.00;99.90;;;;;;5072658;28;20701;-83
2020/12/07 03:09:54;;;;;;;9.90;6.80;;;9.00;99.90;;;;;;5054440;28;20443;-83
2020/12/07 03:12:20;;;;;;;11.13;6.90;;;9.00;99.90;;;;;;5054589;28;20455;-82
2020/12/07 03:14:46;;;;;;;9.23;6.47;;;9.00;99.90;;;;;;5072534;28;20394;-82
2020/12/07 03:17:11;;;;;;;9.80;7.07;;;9.00;99.90;;;;;;5054642;28;20354;-82
2020/12/07 03:19:37;;;;;;;11.07;7.40;;;9.10;99.90;;;;;;5054409;28;20929;-82
2020/12/07 03:22:03;;;;;;;10.50;7.23;;;9.00;99.90;;;;;;5054422;28;20388;-84
2020/12/07 03:24:29;;;;;;;10.30;7.20;;;9.00;99.90;;;;;;5072401;28;20362;-83
2020/12/07 03:26:55;;;;;;;9.30;6.87;;;9.00;99.90;;;;;;5072343;28;20381;-84
2020/12/07 03:29:21;;;;;;;10.93;6.57;;;9.10;99.90;;;;;;5072649;28;20424;-84
2020/12/07 03:31:46;;;;;;;7.93;5.90;;;9.00;99.90;;;;;;5054349;28;20378;-83
2020/12/07 03:34:12;;;;;;;9.07;6.35;;;9.00;99.90;;;;;;5054243;28;20760;-83
2020/12/07 03:36:41;;;;;;;9.32;6.50;;;9.00;99.90;;;;;;5054335;28;20737;-82
2020/12/07 03:39:07;;;;;;;8.60;6.13;;;9.10;99.90;;;;;;5054360;28;20439;-82
2020/12/07 03:41:33;;;;;;;9.25;6.05;;;9.00;99.90;;;;;;5054234;28;20366;-82
2020/12/07 03:43:59;;;;;;;10.38;6.40;;;9.00;99.90;;;;;;5072277;28;20366;-82
2020/12/07 03:46:25;;;;;;;8.50;6.10;;;9.00;99.90;;;;;;5072537;28;20374;-83
2020/12/07 03:48:51;;;;;;;9.82;6.82;;;9.00;99.90;;;;;;5054190;28;20377;-82
2020/12/07 03:51:17;;;;;;;8.57;6.05;;;9.00;99.90;;;;;;5054290;28;20760;-82
2020/12/07 03:53:43;;;;;;;9.45;5.38;;;8.90;99.90;;;;;;5054640;28;20715;-81
2020/12/07 03:56:10;;;;;;;10.00;6.07;;;8.90;99.90;;;;;;5072457;28;20365;-81
2020/12/07 03:58:36;;;;;;;10.55;6.40;;;8.90;99.90;;;;;;5054081;28;20893;-82
2020/12/07 04:01:04;;;;;;;8.93;6.50;;;9.00;99.90;;;;;;5055936;28;20422;-81
2020/12/07 04:03:30;;;;;;;8.70;6.72;;;9.00;99.90;;;;;;5058046;28;20378;-81
2020/12/07 04:06:08;;;;;;;9.60;6.13;;;8.90;99.90;;;;;;5057973;28;20428;-82
2020/12/07 04:08:34;;;;;;;7.47;5.50;;;8.90;99.90;;;;;;5058067;28;20401;-82
2020/12/07 04:11:00;;;;;;;10.23;5.72;;;8.90;99.90;;;;;;5057758;28;20422;-81
2020/12/07 04:13:25;;;;;;;8.52;5.93;;;8.90;99.90;;;;;;5057776;28;20796;-82
2020/12/07 04:15:51;;;;;;;8.35;5.90;;;8.90;99.90;;;;;;5075788;28;20366;-83
2020/12/07 04:18:17;;;;;;;8.93;6.20;;;8.90;99.90;;;;;;5075826;28;20388;-83
2020/12/07 04:20:43;;;;;;;7.88;5.95;;;8.90;99.90;;;;;;5057681;28;20456;-82
2020/12/07 04:23:09;;;;;;;10.50;5.80;;;9.00;99.90;;;;;;5075612;28;20431;-82
2020/12/07 04:25:35;;;;;;;8.70;6.30;;;8.90;99.90;;;;;;5057562;28;20390;-82
2020/12/07 04:28:01;;;;;;;10.65;6.15;;;8.90;99.90;;;;;;5075874;28;20362;-81
2020/12/07 04:30:27;;;;;;;10.23;5.82;;;8.90;99.90;;;;;;5075590;28;20754;-82
2020/12/07 04:32:52;;;;;;;8.70;6.00;;;8.90;99.90;;;;;;5057556;28;20398;-82
2020/12/07 04:35:18;;;;;;;7.57;5.70;;;8.90;99.90;;;;;;5075362;28;20370;-82
2020/12/07 04:37:44;;;;;;;9.83;5.83;;;8.90;99.90;;;;;;5075439;28;20401;-82
2020/12/07 04:40:10;;;;;;;11.90;6.00;;;8.90;99.90;;;;;;5075699;28;20434;-82
2020/12/07 04:42:38;;;;;;;7.83;5.97;;;8.90;99.90;;;;;;5075300;28;20374;-82
2020/12/07 04:45:04;;;;;;;10.43;6.20;;;8.80;99.90;;;;;;5057357;28;20550;-84
2020/12/07 04:47:32;;;;;;;10.10;6.47;;;8.90;99.90;;;;;;5057273;28;20865;-82
2020/12/07 04:50:03;;;;;;;9.35;6.28;;;8.90;99.90;;;;;;5075140;28;20721;-84
2020/12/07 04:52:30;;;;;;;9.25;6.20;;;8.80;99.90;;;;;;5075285;28;20382;-84
2020/12/07 04:54:58;;;;;;;8.70;6.10;;;8.90;99.90;;;;;;5057213;28;20852;-83
2020/12/07 04:57:25;;;;;;;9.65;6.05;;;8.90;99.90;;;;;;5075096;28;20374;-83
2020/12/07 04:59:52;;;;;;;10.10;6.38;;;9.00;99.90;;;;;;5074964;28;20367;-84
2020/12/07 05:02:18;;;;;;;8.65;6.03;;;8.90;99.90;;;;;;5057090;28;20390;-83
2020/12/07 05:04:44;;;;;;;10.67;6.70;;;8.90;99.90;;;;;;5056952;28;20882;-83
2020/12/07 05:07:11;;;;;;;9.80;6.38;;;9.00;99.90;;;;;;5074880;28;20405;-84
2020/12/07 05:09:38;;;;;;;10.93;6.70;;;8.90;99.90;;;;;;5074646;28;20381;-85
2020/12/07 05:12:15;;;;;;;8.02;6.40;;;9.00;99.90;;;;;;5073786;28;20394;-84
2020/12/07 05:14:41;;;;;;;12.23;6.95;;;9.00;99.90;;;;;;5056751;28;20871;-83
2020/12/07 05:17:07;;;;;;;12.93;7.53;;;8.90;99.90;;;;;;5075015;28;20415;-84
2020/12/07 05:19:33;;;;;;;11.80;7.20;;;8.90;99.90;;;;;;5056694;28;20404;-83
2020/12/07 05:21:59;;;;;;;10.55;7.22;;;9.00;99.90;;;;;;5056593;28;20370;-84
2020/12/07 05:24:25;;;;;;;12.10;7.10;;;9.00;99.90;;;;;;5056581;28;20850;-84
2020/12/07 05:26:52;;;;;;;9.23;6.77;;;9.00;99.90;;;;;;5074486;28;20890;-86
2020/12/07 05:29:40;;;;;;;9.68;6.80;;;9.00;99.90;;;;;;5074353;28;20449;-84
2020/12/07 05:32:06;;;;;;;9.73;6.90;;;9.00;99.90;;;;;;5074868;28;20472;-83
2020/12/07 05:34:32;;;;;;;8.98;6.93;;;9.00;99.90;;;;;;5056450;28;20365;-84
2020/12/07 05:36:58;;;;;;;9.75;7.50;;;9.00;99.90;;;;;;5056240;28;20415;-83
2020/12/07 05:39:25;;;;;;;9.90;7.10;;;9.10;99.90;;;;;;5074249;28;20864;-83
2020/12/07 05:41:55;;;;;;;10.23;7.30;;;9.10;99.90;;;;;;5074394;28;20443;-83
2020/12/07 05:44:21;;;;;;;12.40;8.50;;;9.10;99.90;;;;;;5074120;28;20898;-83
2020/12/07 05:46:54;;;;;;;11.30;7.90;;;9.10;99.90;;;;;;5056998;28;20709;-83
2020/12/07 05:49:22;;;;;;;11.88;7.53;;;9.10;99.90;;;;;;5056023;28;20387;-82
2020/12/07 05:51:57;;;;;;;11.90;8.43;;;9.10;99.90;;;;;;5055911;28;20409;-81
2020/12/07 05:54:23;;;;;;;12.32;8.27;;;9.10;99.90;;;;;;5056087;28;20378;-81
2020/12/07 05:56:55;;;;;;;11.35;7.93;;;9.20;99.90;;;;;;5073978;28;20454;-81
2020/12/07 05:59:30;;;;;;;10.07;7.40;;;9.20;99.90;;;;;;5055910;28;20465;-81
2020/12/07 06:01:58;;;;;;;12.20;8.35;;;9.20;99.90;;;;;;5074385;28;20423;-81
2020/12/07 06:04:27;;;;;;;10.20;7.95;;;9.20;99.90;;;;;;5073779;28;20366;-81
2020/12/07 06:07:00;;;;;;;9.85;7.43;;;9.20;99.90;;;;;;5073709;28;20374;-82
2020/12/07 06:09:28;;;;;;;12.10;7.90;;;9.20;99.90;;;;;;5055435;28;20511;-82
2020/12/07 06:12:23;;;;;;;11.18;8.15;;;9.20;99.90;;;;;;5055581;28;20874;-82
2020/12/07 06:14:49;;;;;;;13.45;8.50;;;9.20;99.90;;;;;;5071651;28;20377;-82
2020/12/07 06:17:29;;;;;;;13.35;8.25;;;9.20;99.90;;;;;;5073489;28;20844;-82
2020/12/07 06:19:55;;;;;;;9.70;7.93;;;9.20;99.90;;;;;;5055476;28;20380;-82
2020/12/07 06:22:22;;;;;;;14.27;9.27;;;9.30;99.90;;;;;;5055529;28;20374;-82
2020/12/07 06:24:53;;;;;;;13.30;8.73;;;9.30;99.90;;;;;;5055386;28;20754;-82
2020/12/07 06:27:19;;;;;;;15.27;8.90;;;9.30;99.90;;;;;;5073179;28;20465;-85
2020/12/07 06:30:06;;;;;;;13.55;8.95;;;9.30;99.90;;;;;;5055454;28;20477;-82
2020/12/07 06:32:52;;;;;;;11.70;8.10;;;9.40;99.90;;;;;;5073258;28;20732;-84
2020/12/07 06:35:19;;;;;;;11.90;8.17;;;9.30;99.90;;;;;;5055407;28;20374;-84
2020/12/07 06:37:49;;;;;;;13.20;9.18;;;9.30;99.90;;;;;;5055274;28;20802;-84
2020/12/07 06:40:18;;;;;;;13.27;10.07;;;9.40;99.90;;;;;;5073585;28;20359;-84
2020/12/07 06:42:46;;;;;;;11.73;8.55;;;9.30;99.90;;;;;;5073013;28;20461;-84
2020/12/07 06:45:44;;;;;;;12.10;8.38;;;9.40;99.90;;;;;;5073309;28;20475;-84
2020/12/07 06:48:13;;;;;;;13.90;9.43;;;9.40;99.90;;;;;;5039565;28;20791;-84
2020/12/07 06:50:41;;;;;;;15.23;9.70;;;9.40;99.90;;;;;;5055053;28;20402;-84
2020/12/07 06:55:57;;;;;;;16.20;10.13;;;9.50;99.90;;;;;;5072791;28;20412;-84
2020/12/07 06:58:34;;;;;;;15.80;10.23;;;9.50;99.90;;;;;;5072868;28;20368;-84
2020/12/07 07:01:14;;;;;;;12.95;8.75;;;9.50;99.90;;;;;;5054840;28;20461;-84
2020/12/07 07:03:56;;;;;;;15.23;9.90;;;9.50;99.90;;;;;;5054772;28;20787;-84
2020/12/07 07:06:23;;;;;;;16.23;11.85;;;9.50;99.90;;;;;;5072812;28;20393;-84
2020/12/07 07:08:50;;;;;;;31.48;12.77;;;9.50;99.90;;;;;;5054736;28;20370;-85
2020/12/07 07:11:16;;;;;;;16.38;10.40;;;9.50;99.90;;;;;;5051160;28;20805;-86
2020/12/07 07:13:47;;;;;;;17.90;12.70;;;9.50;99.90;;;;;;5051259;28;20445;-85
2020/12/07 07:16:15;;;;;;;15.13;10.55;;;9.50;99.90;;;;;;5052541;28;20364;-85
2020/12/07 07:18:42;;;;;;;18.30;11.90;;;9.50;99.90;;;;;;5052500;28;20371;-84
2020/12/07 07:21:08;;;;;;;24.45;17.38;;;9.50;99.90;;;;;;5052817;28;20410;-84
2020/12/07 07:23:42;;;;;;;17.88;12.48;;;9.50;99.90;;;;;;5051240;28;20459;-84
2020/12/07 07:26:30;;;;;;;15.30;9.82;;;9.40;99.90;;;;;;5051112;28;20410;-84
2020/12/07 07:28:56;;;;;;;28.35;11.25;;;9.40;99.90;;;;;;5051139;28;20938;-82
2020/12/07 07:31:24;;;;;;;15.18;9.43;;;9.30;99.90;;;;;;5051161;28;20474;-84
2020/12/07 07:33:49;;;;;;;16.80;9.80;;;9.30;99.90;;;;;;5052196;28;21156;-83
2020/12/07 07:36:25;;;;;;;11.43;8.68;;;9.30;99.90;;;;;;5050584;28;20467;-83
2020/12/07 07:38:55;;;;;;;16.07;9.00;;;9.30;99.90;;;;;;5050921;28;20375;-83
2020/12/07 07:41:25;;;;;;;13.88;9.65;;;9.30;99.90;;;;;;5051040;28;20382;-83
2020/12/07 07:43:52;;;;;;;14.65;10.00;;;9.20;99.90;;;;;;5052290;28;20398;-83
2020/12/07 07:46:22;;;;;;;12.40;8.32;;;9.30;99.90;;;;;;5052242;28;20865;-83
2020/12/07 07:52:03;;;;;;;11.63;7.93;;;9.20;99.90;;;;;;5052053;28;20363;-83
2020/12/07 08:16:22;;;;;;;12.60;8.95;;;9.20;99.90;;;;;;5072409;28;20436;-86
2020/12/07 08:18:51;;;;;;;92.23;14.90;;;9.20;99.90;;;;;;5053890;28;20374;-85
2020/12/07 08:21:27;;;;;;;13.93;9.02;;;9.20;99.90;;;;;;5054005;28;20381;-85
2020/12/07 08:23:55;;;;;;;13.33;9.17;;;9.20;99.90;;;;;;5053906;28;20381;-84
2020/12/07 08:26:21;;;;;;;14.52;9.48;;;9.20;99.90;;;;;;5053838;28;20386;-85
2020/12/07 08:28:49;;;;;;;16.02;10.43;;;9.20;99.90;;;;;;5071830;28;20420;-85
2020/12/07 08:31:19;;;;;;;18.80;10.95;;;9.30;99.90;;;;;;5053608;28;20389;-85
2020/12/07 08:33:55;;;;;;;14.32;10.07;;;9.30;99.90;;;;;;5053859;28;20795;-85
2020/12/07 08:36:22;;;;;;;15.35;9.55;;;9.20;99.90;;;;;;5053703;28;20373;-85
2020/12/07 08:38:49;;;;;;;16.08;10.02;;;9.20;99.90;;;;;;5071807;28;20379;-85
2020/12/07 08:41:20;;;;;;;16.50;10.65;;;9.20;99.90;;;;;;5071672;28;20428;-84
2020/12/07 08:43:49;;;;;;;17.77;12.02;;;9.30;99.90;;;;;;5071678;28;20374;-83
2020/12/07 08:46:21;;;;;;;15.55;9.98;;;9.20;99.90;;;;;;5053848;28;20872;-84
2020/12/07 08:48:47;;;;;;;14.32;9.98;;;9.30;99.90;;;;;;5056366;28;21277;-84
2020/12/07 08:51:13;;;;;;;14.43;9.45;;;9.30;99.90;;;;;;5057289;28;20737;-84
2020/12/07 08:53:40;;;;;;;24.47;14.43;;;9.20;99.90;;;;;;5074993;28;20390;-84
2020/12/07 08:56:07;;;;;;;26.13;15.90;;;9.20;99.90;;;;;;5075357;28;20373;-84
2020/12/07 08:58:34;;;;;;;20.27;13.95;;;9.30;99.90;;;;;;5057218;28;20417;-83
2020/12/07 09:01:03;;;;;;;17.47;12.50;;;9.30;99.90;;;;;;5075125;28;20411;-85
2020/12/07 09:03:30;;;;;;;16.83;11.03;;;9.30;99.90;;;;;;5075201;28;20362;-84
2020/12/07 09:05:55;;;;;;;19.38;11.70;;;9.30;99.90;;;;;;5057024;28;20427;-84
2020/12/07 09:08:21;;;;;;;16.58;10.98;;;9.30;99.90;;;;;;5074679;28;20732;-83
2020/12/07 09:10:47;;;;;;;20.85;13.15;;;9.30;99.90;;;;;;5074645;28;20405;-84
2020/12/07 09:13:13;;;;;;;16.10;10.25;;;9.30;99.90;;;;;;5056690;28;20397;-82
2020/12/07 09:15:39;;;;;;;15.70;9.50;;;9.30;99.90;;;;;;5074821;28;20716;-83
2020/12/07 09:18:05;;;;;;;15.70;10.13;;;9.20;99.90;;;;;;5074896;28;20370;-83
2020/12/07 09:20:31;;;;;;;17.42;11.18;;;9.20;99.90;;;;;;5074741;28;20358;-83
2020/12/07 09:22:56;;;;;;;25.90;13.63;;;9.20;99.90;;;;;;5074631;28;20366;-84
2020/12/07 09:25:22;;;;;;;19.63;11.00;;;9.20;99.90;;;;;;5056498;28;20378;-83
2020/12/07 09:27:48;;;;;;;19.67;10.93;;;9.10;99.90;;;;;;5074873;28;20856;-84
2020/12/07 09:30:14;;;;;;;16.40;9.38;;;9.10;99.90;;;;;;5074428;28;20432;-84
2020/12/07 09:32:40;;;;;;;16.77;10.63;;;9.10;99.90;;;;;;5074223;28;20390;-84
2020/12/07 09:35:08;;;;;;;18.47;11.57;;;9.10;99.90;;;;;;5056334;28;20373;-83
2020/12/07 09:37:35;;;;;;;15.23;8.90;;;9.10;99.90;;;;;;5056419;28;20862;-84
2020/12/07 09:40:01;;;;;;;17.10;9.68;;;9.10;99.90;;;;;;5056388;28;20365;-85
2020/12/07 09:42:27;;;;;;;12.77;7.97;;;9.10;99.90;;;;;;5074264;28;20397;-84
2020/12/07 09:44:52;;;;;;;11.70;7.95;;;9.10;99.90;;;;;;5074108;28;20424;-84
2020/12/07 09:47:18;;;;;;;14.52;9.90;;;9.10;99.90;;;;;;5074109;28;20385;-84
2020/12/07 09:49:44;;;;;;;12.73;8.55;;;9.10;99.90;;;;;;5074439;28;20840;-84
2020/12/07 09:52:10;;;;;;;17.77;10.55;;;9.10;99.90;;;;;;5056061;28;20780;-83
2020/12/07 09:54:39;;;;;;;16.10;10.15;;;9.10;99.90;;;;;;5056108;28;20717;-84
2020/12/07 09:57:06;;;;;;;93.75;50.25;;;9.20;99.90;;;;;;5073959;28;20698;-85
2020/12/07 09:59:33;;;;;;;45.55;27.00;;;9.20;99.90;;;;;;5073318;28;20452;-83
2020/12/07 10:02:02;;;;;;;20.38;11.90;;;9.20;99.90;;;;;;5074109;28;20359;-84
2020/12/07 10:04:29;;;;;;;15.65;10.20;;;9.20;99.90;;;;;;5055953;28;20471;-85
2020/12/07 10:06:54;;;;;;;19.90;13.87;;;9.10;99.90;;;;;;5073807;28;21078;-85
2020/12/07 10:09:21;;;;;;;18.13;11.57;;;9.20;99.90;;;;;;5073581;28;20374;-87
2020/12/07 10:11:48;;;;;;;30.08;18.20;;;9.20;99.90;;;;;;5055930;28;20439;-84
2020/12/07 10:14:14;;;;;;;25.85;15.60;;;9.20;99.90;;;;;;5055747;28;20377;-83
2020/12/07 10:16:43;;;;;;;22.23;14.55;;;9.20;99.90;;;;;;5073500;28;20415;-85
2020/12/07 10:19:10;;;;;;;148.32;78.43;;;9.30;99.90;;;;;;5073692;28;20484;-84
2020/12/07 10:21:35;;;;;;;358.87;181.33;;;9.30;99.90;;;;;;5072983;28;20378;-84
2020/12/07 10:24:01;;;;;;;213.70;101.13;;;9.30;99.90;;;;;;5073218;28;20841;-84
2020/12/07 10:26:28;;;;;;;145.48;69.25;;;9.30;99.90;;;;;;5073250;28;20366;-85
2020/12/07 10:28:55;;;;;;;87.57;45.78;;;9.30;99.90;;;;;;5071928;28;20372;-86
2020/12/07 10:31:21;;;;;;;65.05;31.35;;;9.30;99.90;;;;;;5089190;28;20378;-85
2020/12/07 10:33:52;;;;;;;67.20;31.55;;;9.30;99.90;;;;;;5071829;28;20386;-85
2020/12/07 10:36:18;;;;;;;26.67;15.93;;;9.30;99.90;;;;;;5071919;28;20724;-84
2020/12/07 10:38:46;;;;;;;26.15;16.83;;;9.30;99.90;;;;;;5071890;28;20457;-84
2020/12/07 10:41:16;;;;;;;28.67;19.00;;;9.30;99.90;;;;;;5073069;28;20369;-86
2020/12/07 10:43:43;;;;;;;100.32;64.97;;;9.30;99.90;;;;;;5072859;28;20378;-86
2020/12/07 10:46:12;;;;;;;28.00;18.42;;;9.30;99.90;;;;;;5072820;28;20400;-84
2020/12/07 10:48:38;;;;;;;52.55;19.80;;;9.30;99.90;;;;;;5072810;28;20923;-84
2020/12/07 10:51:04;;;;;;;19.25;11.52;;;9.40;99.90;;;;;;5072789;28;20478;-85
2020/12/07 10:53:29;;;;;;;16.55;11.60;;;9.30;99.90;;;;;;5071453;28;21085;-85
2020/12/07 10:55:55;;;;;;;22.48;11.95;;;9.30;99.90;;;;;;5071104;28;21240;-84
2020/12/07 10:58:21;;;;;;;25.17;13.00;;;9.30;99.90;;;;;;5071384;28;20370;-85
2020/12/07 11:00:47;;;;;;;21.27;12.27;;;9.30;99.90;;;;;;5072735;28;20366;-85
2020/12/07 11:03:13;;;;;;;22.05;13.75;;;9.30;99.90;;;;;;5088387;28;20377;-84
2020/12/07 11:05:41;;;;;;;22.65;12.98;;;9.30;99.90;;;;;;5073041;28;20712;-85
2020/12/07 11:08:32;;;;;;;22.17;13.57;;;9.30;99.90;;;;;;5071319;28;20764;-84
2020/12/07 11:10:54;;;;;;;158.75;70.80;;;9.30;99.90;;;;;;5071184;28;20405;-83
2020/12/07 11:13:31;;;;;;;102.53;46.22;;;9.30;99.90;;;;;;5072415;28;20548;-83
2020/12/07 11:16:01;;;;;;;406.30;194.80;;;9.30;99.90;;;;;;5071185;28;20366;-83
2020/12/07 11:18:29;;;;;;;47.80;25.40;;;9.40;99.90;;;;;;5072489;28;20381;-83
2020/12/07 11:20:55;;;;;;;288.83;122.25;;;9.40;99.90;;;;;;5087989;28;20377;-84
2020/12/07 11:23:21;;;;;;;107.75;49.55;;;9.40;99.90;;;;;;5072393;28;20362;-83
2020/12/07 11:25:47;;;;;;;183.55;84.13;;;9.40;99.90;;;;;;5072387;28;20448;-84
2020/12/07 11:28:13;;;;;;;411.98;188.35;;;9.50;99.90;;;;;;5072244;28;20412;-83
2020/12/07 11:30:39;;;;;;;214.32;83.35;;;9.50;99.90;;;;;;5071005;28;20462;-82
2020/12/07 11:33:05;;;;;;;140.10;67.75;;;9.50;99.90;;;;;;5054188;28;20401;-84
2020/12/07 11:35:31;;;;;;;62.33;33.55;;;9.50;99.90;;;;;;5072100;28;20836;-84
2020/12/07 11:38:04;;;;;;;112.55;50.88;;;9.50;99.90;;;;;;5072236;28;20366;-84
2020/12/07 11:45:41;;;;;;;44.35;24.45;;;9.50;99.90;;;;;;5072636;28;21049;-83
2020/12/07 11:48:07;;;;;;;103.88;54.03;;;9.50;99.90;;;;;;5072061;28;20845;-83
2020/12/07 11:50:33;;;;;;;71.90;38.10;;;9.50;99.90;;;;;;5071929;28;21212;-83
2020/12/07 11:52:59;;;;;;;46.72;26.98;;;9.50;99.90;;;;;;5054025;28;20386;-83
2020/12/07 11:55:25;;;;;;;44.35;25.95;;;9.50;99.90;;;;;;5070877;28;20370;-83
2020/12/07 11:57:50;;;;;;;63.03;37.97;;;9.50;99.90;;;;;;5071964;28;20415;-83
2020/12/07 12:00:16;;;;;;;210.77;127.20;;;9.50;99.90;;;;;;5087507;28;20385;-83
2020/12/07 12:02:42;;;;;;;124.03;74.37;;;9.60;99.90;;;;;;5070682;28;20366;-83
2020/12/07 12:05:08;;;;;;;43.33;23.93;;;9.60;99.90;;;;;;5072025;28;20725;-83
2020/12/07 12:07:34;;;;;;;32.07;20.70;;;9.50;99.90;;;;;;5070766;28;20378;-84
2020/12/07 12:09:59;;;;;;;27.83;18.00;;;9.50;99.90;;;;;;5071859;28;20979;-84
2020/12/07 12:12:26;;;;;;;31.88;20.58;;;9.50;99.90;;;;;;5072059;28;20412;-85
2020/12/07 12:14:52;;;;;;;27.70;19.08;;;9.50;99.90;;;;;;5070634;28;20370;-85
2020/12/07 12:17:17;;;;;;;20.98;14.05;;;9.50;99.90;;;;;;5071854;28;20442;-85
2020/12/07 12:19:43;;;;;;;15.88;10.45;;;9.40;99.90;;;;;;5087203;28;20826;-84
2020/12/07 12:22:09;;;;;;;17.65;11.60;;;9.30;99.90;;;;;;5073902;28;20367;-85
2020/12/07 12:24:35;;;;;;;22.10;13.65;;;9.30;99.90;;;;;;5057693;28;20386;-85
2020/12/07 12:27:01;;;;;;;20.58;12.48;;;9.30;99.90;;;;;;5074066;28;20370;-86
2020/12/07 12:29:27;;;;;;;20.55;12.50;;;9.30;99.90;;;;;;5074438;28;20374;-85
2020/12/07 12:31:52;;;;;;;20.55;12.77;;;9.30;99.90;;;;;;5074172;28;20370;-84
2020/12/07 12:34:19;;;;;;;22.75;11.27;;;9.20;99.90;;;;;;5075800;28;21280;-83
2020/12/07 12:36:47;;;;;;;150.38;86.95;;;9.20;99.90;;;;;;5091186;28;21223;-84
2020/12/07 12:39:14;;;;;;;109.07;63.38;;;9.20;99.90;;;;;;5074909;28;20370;-84
2020/12/07 12:41:40;;;;;;;48.17;30.27;;;9.10;99.90;;;;;;5073288;28;20385;-84
2020/12/07 12:44:08;;;;;;;41.20;27.10;;;9.00;99.90;;;;;;5074306;28;20370;-85
2020/12/07 12:46:37;;;;;;;172.98;105.90;;;9.00;99.90;;;;;;5074959;28;20378;-85
2020/12/07 12:49:03;;;;;;;144.50;84.80;;;9.10;99.90;;;;;;5073009;28;20887;-86
2020/12/07 12:51:29;;;;;;;148.57;89.68;;;9.00;99.90;;;;;;5090447;28;20374;-86
2020/12/07 12:53:55;;;;;;;66.28;40.70;;;9.00;99.90;;;;;;5073036;28;20722;-84
2020/12/07 12:56:22;;;;;;;46.73;26.00;;;9.00;99.90;;;;;;5075055;28;20930;-84
2020/12/07 12:58:48;;;;;;;74.07;45.13;;;8.90;99.90;;;;;;5074984;28;20362;-83
2020/12/07 13:01:15;;;;;;;50.43;31.33;;;9.00;99.90;;;;;;5074973;28;20856;-83
2020/12/07 13:03:43;;;;;;;31.90;21.30;;;9.00;99.90;;;;;;5074708;28;20745;-84
2020/12/07 13:06:09;;;;;;;53.28;34.47;;;9.00;99.90;;;;;;5073594;28;20384;-84
2020/12/07 13:08:35;;;;;;;33.15;20.80;;;8.90;99.90;;;;;;5072979;28;20380;-83
2020/12/07 13:11:02;;;;;;;31.58;21.48;;;8.90;99.90;;;;;;5073195;28;20394;-85
2020/12/07 13:13:35;;;;;;;19.05;12.55;;;8.80;99.90;;;;;;5073445;28;20398;-85
2020/12/07 13:16:04;;;;;;;21.57;14.13;;;8.70;99.90;;;;;;5074775;28;20854;-84
2020/12/07 13:18:38;;;;;;;37.90;20.00;;;8.80;99.90;;;;;;5074735;28;20833;-86
2020/12/07 13:21:10;;;;;;;23.33;16.70;;;8.90;99.90;;;;;;5074847;28;20362;-86